createdAt,value
2022-09-16T00:00:39.039Z,18.50
2022-09-16T00:03:11.081Z,18.53
2022-09-16T00:05:43.807Z,18.60
2022-09-16T00:08:13.260Z,18.61
2022-09-16T00:10:43.360Z,18.56
2022-09-16T00:13:13.121Z,18.59
2022-09-16T00:15:45.053Z,18.51
2022-09-16T00:18:17.147Z,18.53
2022-09-16T00:20:47.876Z,18.55
2022-09-16T00:23:17.433Z,18.57
2022-09-16T00:25:46.877Z,18.58
2022-09-16T00:28:16.656Z,18.57
2022-09-16T00:30:46.236Z,18.63
2022-09-16T00:33:18.385Z,18.55
2022-09-16T00:35:47.891Z,18.55
2022-09-16T00:38:17.387Z,18.52
2022-09-16T00:40:47.692Z,18.45
2022-09-16T00:43:17.538Z,18.46
2022-09-16T00:45:47.790Z,18.41
2022-09-16T00:48:23.401Z,18.40
2022-09-16T00:50:54.330Z,18.43
2022-09-16T00:53:26.246Z,18.41
2022-09-16T00:55:55.730Z,18.39
2022-09-16T00:58:27.266Z,18.44
2022-09-16T01:00:56.742Z,18.41
2022-09-16T01:03:29.084Z,18.40
2022-09-16T01:05:58.549Z,18.40
2022-09-16T01:08:28.020Z,18.37
2022-09-16T01:10:58.041Z,18.42
2022-09-16T01:13:27.461Z,18.40
2022-09-16T01:15:59.764Z,18.36
2022-09-16T01:18:34.400Z,18.39
2022-09-16T01:21:15.435Z,18.39
2022-09-16T01:24:06.141Z,18.39
2022-09-16T01:27:14.724Z,18.36
2022-09-16T01:30:14.239Z,18.26
2022-09-16T01:32:52.195Z,18.21
2022-09-16T01:35:23.894Z,18.18
2022-09-16T01:37:57.317Z,18.15
2022-09-16T01:40:29.865Z,18.14
2022-09-16T01:43:01.425Z,18.15
2022-09-16T01:45:33.688Z,18.15
2022-09-16T01:48:07.642Z,18.11
2022-09-16T01:50:40.094Z,18.20
2022-09-16T01:53:11.653Z,18.14
2022-09-16T01:55:42.201Z,18.13
2022-09-16T01:58:13.464Z,18.18
2022-09-16T02:00:42.839Z,18.17
2022-09-16T02:03:15.343Z,18.14
2022-09-16T02:05:48.746Z,18.09
2022-09-16T02:08:20.959Z,18.12
2022-09-16T02:10:52.584Z,18.11
2022-09-16T02:13:24.125Z,18.12
2022-09-16T02:15:54.616Z,18.15
2022-09-16T02:18:29.069Z,18.17
2022-09-16T02:20:58.984Z,18.19
2022-09-16T02:23:29.910Z,18.19
2022-09-16T02:25:59.297Z,18.18
2022-09-16T02:28:29.933Z,18.17
2022-09-16T02:31:00.286Z,18.18
2022-09-16T02:33:34.682Z,18.07
2022-09-16T02:36:04.872Z,18.05
2022-09-16T02:38:36.217Z,18.03
2022-09-16T02:41:05.660Z,18.02
2022-09-16T02:43:35.283Z,17.94
2022-09-16T02:46:09.499Z,17.90
2022-09-16T02:48:45.367Z,17.93
2022-09-16T02:51:19.131Z,17.88
2022-09-16T02:53:50.215Z,17.83
2022-09-16T02:56:20.955Z,17.86
2022-09-16T02:58:50.370Z,17.85
2022-09-16T03:01:19.913Z,17.86
2022-09-16T03:03:51.953Z,17.86
2022-09-16T03:06:23.160Z,17.87
2022-09-16T03:08:52.656Z,17.78
2022-09-16T03:11:51.508Z,17.77
2022-09-16T03:14:36.376Z,17.73
2022-09-16T03:17:10.934Z,17.75
2022-09-16T03:19:47.944Z,17.80
2022-09-16T03:22:20.975Z,17.78
2022-09-16T03:24:54.116Z,17.75
2022-09-16T03:27:26.541Z,17.73
2022-09-16T03:29:58.153Z,17.74
2022-09-16T03:32:28.930Z,17.80
2022-09-16T03:35:02.837Z,17.78
2022-09-16T03:37:34.399Z,17.78
2022-09-16T03:40:07.268Z,17.79
2022-09-16T03:42:36.681Z,17.85
2022-09-16T03:45:06.590Z,17.76
2022-09-16T03:47:35.997Z,17.75
2022-09-16T03:50:09.136Z,17.74
2022-09-16T03:52:39.292Z,17.75
2022-09-16T03:55:10.824Z,17.71
2022-09-16T03:57:40.383Z,17.70
2022-09-16T04:00:12.221Z,17.67
2022-09-16T04:02:42.102Z,17.68
2022-09-16T04:05:14.506Z,17.64
2022-09-16T04:07:43.877Z,17.65
2022-09-16T04:10:13.957Z,17.67
2022-09-16T04:12:43.330Z,17.75
2022-09-16T04:15:13.413Z,17.72
2022-09-16T04:17:42.798Z,17.73
2022-09-16T04:20:14.911Z,17.75
2022-09-16T04:22:44.285Z,17.78
2022-09-16T04:25:13.677Z,17.70
2022-09-16T04:27:43.102Z,17.65
2022-09-16T04:30:14.579Z,17.63
2022-09-16T04:32:43.983Z,17.66
2022-09-16T04:35:19.477Z,17.60
2022-09-16T04:37:49.265Z,17.54
2022-09-16T04:40:19.364Z,17.49
2022-09-16T04:42:51.436Z,17.54
2022-09-16T04:45:20.818Z,17.56
2022-09-16T04:47:50.244Z,17.61
2022-09-16T04:50:22.701Z,17.63
2022-09-16T04:52:52.105Z,17.68
2022-09-16T04:55:22.996Z,17.68
2022-09-16T04:57:52.654Z,17.68
2022-09-16T05:00:22.127Z,17.66
2022-09-16T05:02:51.818Z,17.69
2022-09-16T05:05:23.903Z,17.69
2022-09-16T05:07:53.297Z,17.63
2022-09-16T05:10:22.695Z,17.62
2022-09-16T05:12:54.275Z,17.61
2022-09-16T05:15:23.734Z,17.60
2022-09-16T05:17:53.297Z,17.60
2022-09-16T05:20:25.282Z,17.62
2022-09-16T05:22:54.833Z,17.63
2022-09-16T05:25:24.238Z,17.68
2022-09-16T05:27:53.797Z,17.70
2022-09-16T05:30:26.085Z,17.76
2022-09-16T05:32:56.163Z,17.71
2022-09-16T05:35:28.226Z,17.70
2022-09-16T05:37:57.734Z,17.67
2022-09-16T05:40:27.697Z,17.66
2022-09-16T05:42:57.182Z,17.66
2022-09-16T05:45:31.479Z,17.64
2022-09-16T05:48:01.807Z,17.64
2022-09-16T05:50:33.806Z,17.67
2022-09-16T05:53:03.206Z,17.73
2022-09-16T05:55:32.584Z,17.82
2022-09-16T05:58:01.987Z,17.85
2022-09-16T06:00:31.405Z,17.91
2022-09-16T06:03:00.887Z,17.96
2022-09-16T06:05:33.307Z,17.98
2022-09-16T06:08:03.323Z,18.02
2022-09-16T06:10:32.709Z,18.05
2022-09-16T06:13:02.099Z,18.04
2022-09-16T06:15:31.510Z,18.05
2022-09-16T06:18:06.115Z,17.99
2022-09-16T06:20:39.289Z,17.96
2022-09-16T06:23:08.795Z,17.96
2022-09-16T06:25:38.196Z,17.94
2022-09-16T06:28:07.587Z,17.90
2022-09-16T06:30:37.022Z,17.93
2022-09-16T06:33:06.558Z,17.95
2022-09-16T06:35:38.639Z,17.95
2022-09-16T06:38:08.075Z,17.95
2022-09-16T06:40:37.633Z,17.96
2022-09-16T06:43:07.033Z,17.96
2022-09-16T06:45:36.416Z,17.85
2022-09-16T06:48:06.013Z,17.95
2022-09-16T06:50:37.991Z,18.31
2022-09-16T06:53:07.394Z,18.51
2022-09-16T06:55:37.302Z,18.57
2022-09-16T06:58:06.687Z,18.76
2022-09-16T07:00:36.059Z,19.29
2022-09-16T07:03:05.581Z,19.31
2022-09-16T07:05:35.046Z,19.23
2022-09-16T07:08:07.402Z,19.14
2022-09-16T07:10:36.880Z,18.90
2022-09-16T07:13:06.686Z,18.82
2022-09-16T07:15:50.977Z,18.86
2022-09-16T07:18:25.609Z,19.17
2022-09-16T07:20:55.004Z,19.47
2022-09-16T07:23:26.973Z,19.64
2022-09-16T07:26:02.922Z,19.93
2022-09-16T07:28:32.358Z,20.00
2022-09-16T07:31:03.848Z,19.98
2022-09-16T07:33:33.494Z,19.90
2022-09-16T07:36:02.968Z,20.09
2022-09-16T07:38:35.074Z,20.48
2022-09-16T07:41:07.629Z,20.67
2022-09-16T07:43:37.077Z,20.68
2022-09-16T07:46:06.674Z,21.14
2022-09-16T07:48:36.171Z,21.37
2022-09-16T07:51:07.331Z,20.94
2022-09-16T07:53:39.393Z,20.64
2022-09-16T07:56:10.189Z,20.74
2022-09-16T07:58:39.588Z,20.97
2022-09-16T08:01:09.305Z,21.04
2022-09-16T08:03:39.277Z,20.79
2022-09-16T08:06:12.774Z,21.08
2022-09-16T08:08:44.896Z,21.48
2022-09-16T08:11:14.780Z,21.63
2022-09-16T08:13:45.536Z,21.68
2022-09-16T08:16:16.391Z,21.48
2022-09-16T08:18:46.016Z,20.98
2022-09-16T08:21:16.675Z,20.50
2022-09-16T08:23:48.704Z,20.36
2022-09-16T08:26:18.773Z,20.24
2022-09-16T08:29:08.975Z,20.30
2022-09-16T08:31:38.687Z,20.51
2022-09-16T08:34:08.404Z,21.07
2022-09-16T08:36:37.828Z,21.12
2022-09-16T08:39:09.851Z,21.03
2022-09-16T08:41:46.002Z,20.82
2022-09-16T08:44:19.839Z,20.62
2022-09-16T08:46:53.461Z,20.53
2022-09-16T08:49:32.544Z,21.01
2022-09-16T08:52:03.337Z,21.12
2022-09-16T08:54:38.930Z,20.88
2022-09-16T08:57:08.786Z,20.73
2022-09-16T08:59:43.936Z,20.47
2022-09-16T09:02:26.061Z,20.15
2022-09-16T09:04:55.860Z,19.99
2022-09-16T09:07:29.596Z,19.95
2022-09-16T09:10:08.546Z,19.91
2022-09-16T09:12:41.584Z,19.90
2022-09-16T09:15:22.858Z,20.02
2022-09-16T09:18:03.235Z,20.04
2022-09-16T09:20:38.904Z,20.14
2022-09-16T09:23:19.405Z,20.15
2022-09-16T09:25:54.145Z,20.06
2022-09-16T09:28:42.987Z,19.98
2022-09-16T09:31:15.435Z,19.98
2022-09-16T09:33:49.086Z,20.17
2022-09-16T09:36:27.713Z,20.26
2022-09-16T09:39:07.789Z,20.41
2022-09-16T09:41:40.960Z,20.36
2022-09-16T09:44:22.250Z,20.18
2022-09-16T09:46:55.206Z,20.00
2022-09-16T09:49:29.292Z,19.95
2022-09-16T09:52:00.149Z,19.89
2022-09-16T09:54:30.428Z,19.78
2022-09-16T09:57:04.946Z,19.69
2022-09-16T09:59:38.445Z,19.54
2022-09-16T10:02:12.256Z,19.50
2022-09-16T10:04:41.786Z,19.59
2022-09-16T10:07:11.264Z,19.73
2022-09-16T10:09:40.737Z,19.86
2022-09-16T10:12:12.806Z,20.17
2022-09-16T10:14:42.284Z,20.41
2022-09-16T10:17:17.476Z,20.61
2022-09-16T10:19:54.164Z,21.07
2022-09-16T10:22:25.381Z,21.24
2022-09-16T10:24:58.942Z,21.40
2022-09-16T10:27:35.393Z,21.36
2022-09-16T10:30:10.659Z,21.29
2022-09-16T10:32:47.585Z,21.19
2022-09-16T10:35:20.452Z,20.85
2022-09-16T10:37:54.472Z,20.80
2022-09-16T10:40:24.139Z,20.81
2022-09-16T10:42:57.551Z,20.91
2022-09-16T10:45:29.107Z,21.03
2022-09-16T10:48:02.215Z,21.01
2022-09-16T10:50:34.614Z,20.83
2022-09-16T10:53:03.987Z,20.69
2022-09-16T10:55:36.610Z,20.67
2022-09-16T10:58:21.290Z,20.77
2022-09-16T11:00:53.162Z,20.73
2022-09-16T11:03:51.237Z,20.58
2022-09-16T11:06:27.601Z,20.50
2022-09-16T11:09:02.215Z,20.54
2022-09-16T11:11:41.599Z,20.44
2022-09-16T11:14:17.562Z,20.31
2022-09-16T11:16:55.821Z,20.26
2022-09-16T11:19:28.475Z,20.56
2022-09-16T11:22:05.658Z,21.05
2022-09-16T11:24:51.730Z,21.61
2022-09-16T11:27:27.130Z,21.93
2022-09-16T11:30:04.994Z,21.80
2022-09-16T11:32:43.504Z,21.77
2022-09-16T11:35:27.720Z,21.91
2022-09-16T11:37:59.218Z,21.93
2022-09-16T11:40:34.513Z,21.48
2022-09-16T11:43:27.851Z,20.71
2022-09-16T11:46:03.403Z,20.22
2022-09-16T11:48:42.243Z,20.05
2022-09-16T11:51:15.842Z,20.09
2022-09-16T11:54:01.102Z,20.36
2022-09-16T11:56:35.012Z,20.82
2022-09-16T11:59:06.777Z,21.10
2022-09-16T12:01:42.602Z,21.40
2022-09-16T12:04:14.822Z,21.31
2022-09-16T12:06:45.737Z,21.28
2022-09-16T12:09:16.850Z,21.50
2022-09-16T12:11:47.084Z,21.59
2022-09-16T12:14:17.580Z,22.05
2022-09-16T12:16:50.617Z,21.99
2022-09-16T12:19:23.057Z,21.74
2022-09-16T12:21:57.941Z,21.54
2022-09-16T12:24:30.984Z,21.55
2022-09-16T12:27:02.835Z,21.33
2022-09-16T12:29:35.939Z,21.25
2022-09-16T12:32:10.907Z,21.04
2022-09-16T12:34:43.157Z,20.71
2022-09-16T12:37:26.760Z,20.69
2022-09-16T12:39:56.238Z,20.41
2022-09-16T12:42:45.900Z,20.16
2022-09-16T12:45:44.955Z,20.20
2022-09-16T12:48:36.464Z,20.37
2022-09-16T12:51:12.954Z,20.56
2022-09-16T12:54:17.425Z,20.64
2022-09-16T12:57:06.612Z,20.64
2022-09-16T13:00:00.160Z,20.53
2022-09-16T13:02:31.632Z,20.69
2022-09-16T13:05:07.095Z,20.99
2022-09-16T13:07:37.161Z,21.30
2022-09-16T13:10:08.211Z,21.62
2022-09-16T13:12:43.212Z,21.87
2022-09-16T13:15:26.051Z,22.13
2022-09-16T13:17:55.661Z,22.28
2022-09-16T13:20:31.158Z,22.24
2022-09-16T13:23:05.557Z,22.02
2022-09-16T13:25:37.020Z,22.19
2022-09-16T13:28:07.523Z,22.10
2022-09-16T13:30:38.457Z,22.07
2022-09-16T13:33:26.477Z,21.87
2022-09-16T13:36:18.474Z,21.58
2022-09-16T13:38:49.780Z,21.14
2022-09-16T13:41:32.271Z,20.68
2022-09-16T13:44:01.775Z,20.12
2022-09-16T13:46:34.147Z,19.75
2022-09-16T13:49:19.544Z,19.62
2022-09-16T13:51:52.478Z,19.64
2022-09-16T13:54:37.166Z,19.50
2022-09-16T13:57:42.485Z,19.48
2022-09-16T14:00:17.315Z,19.50
2022-09-16T14:02:57.553Z,19.51
2022-09-16T14:05:42.924Z,19.48
2022-09-16T14:08:19.003Z,19.44
2022-09-16T14:10:53.496Z,19.44
2022-09-16T14:13:23.517Z,19.60
2022-09-16T14:15:54.198Z,19.76
2022-09-16T14:18:24.670Z,19.76
2022-09-16T14:20:56.721Z,19.81
2022-09-16T14:23:28.764Z,19.88
2022-09-16T14:25:58.140Z,19.84
2022-09-16T14:28:28.448Z,19.82
2022-09-16T14:30:58.631Z,20.00
2022-09-16T14:33:30.366Z,20.15
2022-09-16T14:36:00.092Z,20.30
2022-09-16T14:38:45.504Z,20.49
2022-09-16T14:41:20.298Z,20.49
2022-09-16T14:43:49.736Z,20.43
2022-09-16T14:46:19.214Z,20.46
2022-09-16T14:48:48.685Z,20.46
2022-09-16T14:51:22.549Z,20.43
2022-09-16T14:54:12.689Z,20.43
2022-09-16T14:56:42.812Z,20.61
2022-09-16T14:59:13.944Z,20.33
2022-09-16T15:01:43.391Z,19.85
2022-09-16T15:04:14.920Z,19.53
2022-09-16T15:06:46.925Z,19.00
2022-09-16T15:09:22.118Z,18.84
2022-09-16T15:11:53.438Z,18.56
2022-09-16T15:14:22.832Z,18.53
2022-09-16T15:16:55.971Z,18.40
2022-09-16T15:19:26.588Z,18.30
2022-09-16T15:21:55.990Z,18.30
2022-09-16T15:24:31.300Z,18.20
2022-09-16T15:27:00.785Z,18.09
2022-09-16T15:29:32.496Z,18.11
2022-09-16T15:32:19.544Z,18.07
2022-09-16T15:34:49.670Z,18.11
2022-09-16T15:37:34.687Z,18.22
2022-09-16T15:40:22.332Z,18.39
2022-09-16T15:42:52.139Z,18.69
2022-09-16T15:45:22.541Z,18.67
2022-09-16T15:47:57.158Z,18.62
2022-09-16T15:50:26.560Z,18.52
2022-09-16T15:52:58.674Z,18.38
2022-09-16T15:55:34.389Z,18.23
2022-09-16T15:58:11.848Z,18.21
2022-09-16T16:01:00.689Z,18.22
2022-09-16T16:03:31.184Z,18.05
2022-09-16T16:06:00.613Z,18.16
2022-09-16T16:08:49.995Z,18.17
2022-09-16T16:11:23.563Z,18.31
2022-09-16T16:13:53.083Z,18.26
2022-09-16T16:16:22.656Z,18.17
2022-09-16T16:18:52.117Z,18.18
2022-09-16T16:21:21.703Z,18.21
2022-09-16T16:23:51.111Z,18.16
2022-09-16T16:26:23.102Z,17.89
2022-09-16T16:28:52.512Z,17.87
2022-09-16T16:31:21.980Z,17.95
2022-09-16T16:33:51.424Z,18.08
2022-09-16T16:36:22.159Z,18.09
2022-09-16T16:38:51.575Z,18.03
2022-09-16T16:41:24.881Z,17.86
2022-09-16T16:43:54.287Z,17.81
2022-09-16T16:46:23.702Z,17.87
2022-09-16T16:48:53.605Z,17.81
2022-09-16T16:51:23.042Z,17.72
2022-09-16T16:53:53.129Z,17.60
2022-09-16T16:56:25.115Z,17.63
2022-09-16T16:58:54.517Z,17.66
2022-09-16T17:01:24.001Z,17.62
2022-09-16T17:03:53.877Z,17.67
2022-09-16T17:06:23.325Z,17.71
2022-09-16T17:08:52.777Z,17.65
2022-09-16T17:11:26.028Z,17.61
2022-09-16T17:13:56.550Z,17.60
2022-09-16T17:16:26.296Z,17.60
2022-09-16T17:18:55.754Z,17.59
2022-09-16T17:21:26.966Z,17.57
2022-09-16T17:23:56.343Z,17.58
2022-09-16T17:26:28.425Z,17.56
2022-09-16T17:28:58.997Z,17.48
2022-09-16T17:31:29.722Z,17.32
2022-09-16T17:34:02.643Z,17.25
2022-09-16T17:36:32.229Z,17.13
2022-09-16T17:39:02.335Z,17.14
2022-09-16T17:41:34.414Z,17.18
2022-09-16T17:44:06.955Z,17.19
2022-09-16T17:46:36.858Z,17.11
2022-09-16T17:49:08.652Z,17.05
2022-09-16T17:51:38.146Z,17.06
2022-09-16T17:54:08.772Z,17.08
2022-09-16T17:56:41.071Z,16.94
2022-09-16T17:59:10.870Z,16.91
2022-09-16T18:01:40.292Z,16.82
2022-09-16T18:04:09.945Z,16.86
2022-09-16T18:06:42.905Z,16.80
2022-09-16T18:09:13.135Z,16.65
2022-09-16T18:11:45.108Z,16.72
2022-09-16T18:14:18.069Z,16.73
2022-09-16T18:16:49.626Z,16.68
2022-09-16T18:19:19.172Z,16.69
2022-09-16T18:21:48.559Z,16.66
2022-09-16T18:24:17.963Z,16.66
2022-09-16T18:26:49.937Z,16.62
2022-09-16T18:29:19.379Z,16.66
2022-09-16T18:31:52.346Z,16.62
2022-09-16T18:34:21.788Z,16.67
2022-09-16T18:36:51.164Z,16.58
2022-09-16T18:39:21.260Z,16.52
2022-09-16T18:41:53.486Z,16.45
2022-09-16T18:44:23.843Z,16.32
2022-09-16T18:46:53.411Z,16.20
2022-09-16T18:49:24.246Z,16.21
2022-09-16T18:51:54.602Z,16.18
2022-09-16T18:54:26.008Z,16.15
2022-09-16T18:56:59.105Z,16.09
2022-09-16T18:59:30.263Z,15.97
2022-09-16T19:02:00.138Z,15.89
2022-09-16T19:04:31.719Z,15.84
2022-09-16T19:07:07.372Z,15.87
2022-09-16T19:09:37.513Z,15.85
2022-09-16T19:12:10.886Z,15.80
2022-09-16T19:14:40.945Z,15.72
2022-09-16T19:17:10.486Z,15.69
2022-09-16T19:19:39.962Z,15.67
2022-09-16T19:22:10.052Z,15.67
2022-09-16T19:24:39.468Z,15.64
2022-09-16T19:27:11.420Z,15.69
2022-09-16T19:29:40.819Z,15.67
2022-09-16T19:32:10.284Z,15.64
2022-09-16T19:34:39.775Z,15.61
2022-09-16T19:37:09.144Z,15.61
2022-09-16T19:39:39.454Z,15.64
2022-09-16T19:42:11.489Z,15.60
2022-09-16T19:44:40.874Z,15.58
2022-09-16T19:47:10.248Z,15.56
2022-09-16T19:49:39.981Z,15.56
2022-09-16T19:52:09.405Z,15.52
2022-09-16T19:54:38.833Z,15.56
2022-09-16T19:57:10.885Z,15.60
2022-09-16T19:59:40.267Z,15.60
2022-09-16T20:02:11.544Z,15.63
2022-09-16T20:04:40.945Z,15.60
2022-09-16T20:07:14.241Z,15.53
2022-09-16T20:09:43.644Z,15.53
2022-09-16T20:12:15.674Z,15.57
2022-09-16T20:14:45.096Z,15.49
2022-09-16T20:17:14.459Z,15.37
2022-09-16T20:19:43.858Z,15.19
2022-09-16T20:22:13.230Z,15.18
2022-09-16T20:24:42.626Z,15.19
2022-09-16T20:27:12.029Z,15.17
2022-09-16T20:29:44.000Z,15.18
2022-09-16T20:32:13.376Z,15.17
2022-09-16T20:34:42.778Z,15.06
2022-09-16T20:37:17.794Z,15.10
2022-09-16T20:39:47.202Z,15.21
2022-09-16T20:42:16.919Z,15.12
2022-09-16T20:44:49.537Z,15.13
2022-09-16T20:47:19.004Z,15.10
2022-09-16T20:49:48.406Z,15.05
2022-09-16T20:52:17.783Z,14.95
2022-09-16T20:54:47.151Z,14.96
2022-09-16T20:57:16.885Z,15.04
2022-09-16T20:59:48.858Z,15.01
2022-09-16T21:02:18.464Z,14.94
2022-09-16T21:04:47.855Z,14.83
2022-09-16T21:07:17.261Z,14.92
2022-09-16T21:09:46.678Z,14.99
2022-09-16T21:12:16.604Z,15.03
2022-09-16T21:14:45.984Z,15.00
2022-09-16T21:17:19.902Z,15.04
2022-09-16T21:19:49.586Z,15.02
2022-09-16T21:22:19.556Z,15.11
2022-09-16T21:24:48.935Z,15.17
2022-09-16T21:27:18.337Z,15.18
2022-09-16T21:29:48.946Z,15.18
2022-09-16T21:32:21.006Z,15.04
2022-09-16T21:34:50.409Z,14.96
2022-09-16T21:37:19.805Z,14.99
2022-09-16T21:39:49.211Z,15.03
2022-09-16T21:42:18.673Z,15.02
2022-09-16T21:44:48.638Z,14.97
2022-09-16T21:47:18.022Z,14.99
2022-09-16T21:49:50.168Z,14.94
2022-09-16T21:52:20.210Z,14.99
2022-09-16T21:54:49.607Z,14.98
2022-09-16T21:57:19.073Z,14.92
2022-09-16T21:59:48.457Z,14.90
2022-09-16T22:02:17.911Z,14.94
2022-09-16T22:04:49.892Z,14.77
2022-09-16T22:07:19.333Z,14.73
2022-09-16T22:09:48.714Z,14.79
2022-09-16T22:12:18.185Z,14.83
2022-09-16T22:14:47.565Z,14.91
2022-09-16T22:17:18.424Z,14.83
2022-09-16T22:19:50.383Z,14.78
2022-09-16T22:22:21.500Z,14.78
2022-09-16T22:24:50.887Z,14.78
2022-09-16T22:27:20.302Z,14.75
2022-09-16T22:29:49.702Z,14.67
2022-09-16T22:32:19.097Z,14.67
2022-09-16T22:34:51.376Z,14.62
2022-09-16T22:37:20.764Z,14.62
2022-09-16T22:39:50.222Z,14.62
2022-09-16T22:42:19.640Z,14.46
2022-09-16T22:44:49.027Z,14.39
2022-09-16T22:47:18.440Z,14.30
2022-09-16T22:49:47.824Z,14.26
2022-09-16T22:52:19.801Z,14.34
2022-09-16T22:54:50.490Z,14.38
2022-09-16T22:57:19.908Z,14.27
2022-09-16T22:59:49.277Z,14.31
2022-09-16T23:02:18.698Z,14.23
2022-09-16T23:04:48.092Z,14.20
2022-09-16T23:07:20.509Z,14.11
2022-09-16T23:09:49.903Z,14.13
2022-09-16T23:12:19.325Z,14.10
2022-09-16T23:14:48.704Z,14.11
2022-09-16T23:17:18.258Z,14.13
2022-09-16T23:19:47.658Z,14.11
2022-09-16T23:22:19.633Z,14.07
2022-09-16T23:24:49.090Z,14.06
2022-09-16T23:27:18.608Z,14.05
2022-09-16T23:29:48.353Z,14.07
2022-09-16T23:32:17.750Z,14.06
2022-09-16T23:34:47.121Z,14.12
2022-09-16T23:37:16.517Z,14.03
2022-09-16T23:39:48.562Z,13.98
2022-09-16T23:42:18.385Z,14.01
2022-09-16T23:44:47.773Z,13.96
2022-09-16T23:47:17.209Z,13.98
2022-09-16T23:49:46.599Z,13.90
2022-09-16T23:52:16.366Z,13.86
2022-09-16T23:54:48.342Z,13.89
2022-09-16T23:57:17.786Z,13.88
2022-09-16T23:59:47.177Z,13.77
